Terminal Aerodrome Forecast
Issued by NWS

Home | Current Version | Previous Version | Text Only | Print | Product List | Glossary Off
Versions: 1 2 3 4 5 6 7 8 9 10 11 12 13 14 15 16 17 18 19 20 21 22 23 24

000
FTUS43 KMPX 271657 AAD
TAFRWF
TAF AMD
KRWF 271657Z 2717/2812 13008KT P6SM OVC009
      TEMPO 2717/2718 SCT010
     FM271800 14012G19KT P6SM FEW050 BKN250
     FM280500 15010G15KT P6SM VCTS BKN050CB
      TEMPO 2806/2810 4SM -TSRA BKN040CB=

USA.gov is the U.S. government's official web portal to all federal, state and local government web resources and services.